createdAt,value
2019-04-04T00:02:53.905Z,8.29
2019-04-04T00:07:54.788Z,8.59
2019-04-04T00:12:55.683Z,8.31
2019-04-04T00:17:56.555Z,8.48
2019-04-04T00:22:57.435Z,8.28
2019-04-04T00:27:58.434Z,8.26
2019-04-04T00:32:59.352Z,8.40
2019-04-04T00:38:00.226Z,8.09
2019-04-04T00:43:01.108Z,8.10
2019-04-04T00:48:03.047Z,8.11
2019-04-04T00:53:04.608Z,7.85
2019-04-04T00:58:05.488Z,7.85
2019-04-04T01:03:06.363Z,8.01
2019-04-04T01:08:07.563Z,7.94
2019-04-04T01:13:08.577Z,7.61
2019-04-04T01:18:09.556Z,7.65
2019-04-04T01:23:10.435Z,7.80
2019-04-04T01:28:11.312Z,7.65
2019-04-04T01:33:12.387Z,7.63
2019-04-04T01:38:13.303Z,7.42
2019-04-04T01:43:14.176Z,7.41
2019-04-04T01:48:15.066Z,7.70
2019-04-04T01:53:15.961Z,7.72
2019-04-04T01:58:16.851Z,7.73
2019-04-04T02:03:17.715Z,7.75
2019-04-04T02:08:18.690Z,8.04
2019-04-04T02:13:19.564Z,7.82
2019-04-04T02:18:23.357Z,7.79
2019-04-04T02:23:23.858Z,7.94
2019-04-04T02:28:24.711Z,7.57
2019-04-04T02:33:25.588Z,7.55
2019-04-04T02:38:27.972Z,7.67
2019-04-04T02:43:29.356Z,7.50
2019-04-04T02:48:30.225Z,7.41
2019-04-04T02:53:31.120Z,7.46
2019-04-04T02:58:32.012Z,7.45
2019-04-04T03:03:32.871Z,7.20
2019-04-04T03:08:36.670Z,7.19
2019-04-04T03:13:36.630Z,7.05
2019-04-04T03:18:38.147Z,7.16
2019-04-04T03:23:39.277Z,6.87
2019-04-04T03:28:41.575Z,6.73
2019-04-04T03:33:42.545Z,6.92
2019-04-04T03:38:46.030Z,6.62
2019-04-04T03:43:48.917Z,6.53
2019-04-04T03:48:50.891Z,6.52
2019-04-04T03:53:53.633Z,6.62
2019-04-04T03:58:54.934Z,6.90
2019-04-04T04:03:55.945Z,6.84
2019-04-04T04:08:56.861Z,7.00
2019-04-04T04:13:57.734Z,7.14
2019-04-04T04:18:58.980Z,7.20
2019-04-04T04:23:59.837Z,7.31
2019-04-04T04:29:00.717Z,7.34
2019-04-04T04:34:01.862Z,7.23
2019-04-04T04:39:05.161Z,7.46
2019-04-04T04:44:06.562Z,7.66
2019-04-04T04:49:07.663Z,7.65
2019-04-04T04:54:08.571Z,7.42
2019-04-04T04:59:11.113Z,7.69
2019-04-04T05:04:12.227Z,7.60
2019-04-04T05:09:14.074Z,7.72
2019-04-04T05:14:15.569Z,8.04
2019-04-04T05:19:17.083Z,8.05
2019-04-04T05:24:19.239Z,8.31
2019-04-04T05:29:20.090Z,8.53
2019-04-04T05:34:20.970Z,8.84
2019-04-04T05:39:21.824Z,8.88
2019-04-04T05:44:22.802Z,9.09
2019-04-04T05:49:23.701Z,9.18
2019-04-04T05:54:24.552Z,9.32
2019-04-04T05:59:25.430Z,9.42
2019-04-04T06:04:26.326Z,9.60
2019-04-04T06:09:27.279Z,9.82
2019-04-04T06:14:30.002Z,9.90
2019-04-04T06:19:30.952Z,10.13
2019-04-04T06:24:31.819Z,10.36
2019-04-04T06:29:32.795Z,10.61
2019-04-04T06:34:33.692Z,10.92
2019-04-04T06:39:34.569Z,11.01
2019-04-04T06:44:35.465Z,11.27
2019-04-04T06:49:36.334Z,11.45
2019-04-04T06:54:37.229Z,11.71
2019-04-04T06:59:38.148Z,11.83
2019-04-04T07:04:39.124Z,12.06
2019-04-04T07:09:39.997Z,12.43
2019-04-04T07:14:45.937Z,12.58
2019-04-04T07:19:45.848Z,12.99
2019-04-04T07:24:46.425Z,13.24
2019-04-04T07:29:47.303Z,13.21
2019-04-04T07:34:48.180Z,13.68
2019-04-04T07:39:50.182Z,13.87
2019-04-04T07:44:54.400Z,14.09
2019-04-04T07:49:54.999Z,14.21
2019-04-04T07:54:56.445Z,14.57
2019-04-04T07:59:57.323Z,14.81
2019-04-04T08:04:58.208Z,14.98
2019-04-04T08:09:59.102Z,15.24
2019-04-04T08:14:59.948Z,15.22
2019-04-04T08:20:00.821Z,15.49
2019-04-04T08:25:02.347Z,15.38
2019-04-04T08:30:05.644Z,15.50
2019-04-04T08:35:06.635Z,15.74
2019-04-04T08:40:08.104Z,16.06
2019-04-04T08:45:09.468Z,16.39
2019-04-04T08:50:11.328Z,16.36
2019-04-04T08:55:12.333Z,16.69
2019-04-04T09:00:13.505Z,17.00
2019-04-04T09:05:14.376Z,16.76
2019-04-04T09:10:15.357Z,16.87
2019-04-04T09:15:16.332Z,17.09
2019-04-04T09:20:17.212Z,17.21
2019-04-04T09:25:18.185Z,17.25
2019-04-04T09:30:19.462Z,17.13
2019-04-04T09:35:20.439Z,17.10
2019-04-04T09:40:21.344Z,17.09
2019-04-04T09:45:22.316Z,17.08
2019-04-04T09:50:23.183Z,16.97
2019-04-04T09:55:24.180Z,16.93
2019-04-04T10:00:25.300Z,16.99
2019-04-04T10:05:26.284Z,17.40
2019-04-04T10:10:27.157Z,17.83
2019-04-04T10:15:28.028Z,17.71
2019-04-04T10:20:28.907Z,17.63
2019-04-04T10:25:29.875Z,17.61
2019-04-04T10:30:30.751Z,17.70
2019-04-04T10:35:31.672Z,17.86
2019-04-04T10:40:32.570Z,18.45
2019-04-04T10:45:33.439Z,18.61
2019-04-04T10:50:34.422Z,18.82
2019-04-04T10:55:35.412Z,19.03
2019-04-04T11:00:36.426Z,18.99
2019-04-04T11:05:37.319Z,19.11
2019-04-04T11:10:38.201Z,19.05
2019-04-04T11:15:39.074Z,19.13
2019-04-04T11:20:39.953Z,19.01
2019-04-04T11:25:40.824Z,19.32
2019-04-04T11:30:41.728Z,19.65
2019-04-04T11:35:42.611Z,19.49
2019-04-04T11:40:43.677Z,19.37
2019-04-04T11:45:44.751Z,19.68
2019-04-04T11:50:45.708Z,20.01
2019-04-04T11:55:46.626Z,20.36
2019-04-04T12:00:49.498Z,20.27
2019-04-04T12:05:50.473Z,20.66
2019-04-04T12:10:51.348Z,20.85
2019-04-04T12:15:52.327Z,20.71
2019-04-04T12:20:53.196Z,20.69
2019-04-04T12:25:54.504Z,20.73
2019-04-04T12:30:58.481Z,21.01
2019-04-04T12:35:59.867Z,20.88
2019-04-04T12:41:01.077Z,20.84
2019-04-04T12:46:02.826Z,20.78
2019-04-04T12:51:04.125Z,20.87
2019-04-04T12:56:05.561Z,21.55
2019-04-04T13:01:07.283Z,21.72
2019-04-04T13:06:08.856Z,21.77
2019-04-04T13:11:09.728Z,21.83
2019-04-04T13:16:10.607Z,21.84
2019-04-04T13:21:11.475Z,21.67
2019-04-04T13:26:12.387Z,21.60
2019-04-04T13:31:13.343Z,21.46
2019-04-04T13:36:14.228Z,21.31
2019-04-04T13:41:21.758Z,21.44
2019-04-04T13:46:17.884Z,21.28
2019-04-04T13:51:21.118Z,21.23
2019-04-04T13:56:21.587Z,20.87
2019-04-04T14:01:25.272Z,20.87
2019-04-04T14:06:25.251Z,21.21
2019-04-04T14:11:26.119Z,21.19
2019-04-04T14:16:26.998Z,21.31
2019-04-04T14:21:27.977Z,21.46
2019-04-04T14:26:29.336Z,21.41
2019-04-04T14:31:31.780Z,21.16
2019-04-04T14:36:32.668Z,20.96
2019-04-04T14:41:33.637Z,20.82
2019-04-04T14:46:34.509Z,21.07
2019-04-04T14:51:35.389Z,20.98
2019-04-04T14:56:36.265Z,20.78
2019-04-04T15:01:37.169Z,20.62
2019-04-04T15:06:38.249Z,20.45
2019-04-04T15:11:39.117Z,20.16
2019-04-04T15:16:40.010Z,19.70
2019-04-04T15:21:40.880Z,19.49
2019-04-04T15:26:41.768Z,19.17
2019-04-04T15:31:42.728Z,19.03
2019-04-04T15:36:43.621Z,18.76
2019-04-04T15:41:44.704Z,18.30
2019-04-04T15:46:45.809Z,18.24
2019-04-04T15:51:46.700Z,18.00
2019-04-04T15:56:47.625Z,17.83
2019-04-04T16:01:48.516Z,17.76
2019-04-04T16:06:49.817Z,17.66
2019-04-04T16:11:50.677Z,17.52
2019-04-04T16:16:51.552Z,17.44
2019-04-04T16:21:52.437Z,17.60
2019-04-04T16:26:56.587Z,17.63
2019-04-04T16:31:57.559Z,17.80
2019-04-04T16:36:58.437Z,17.98
2019-04-04T16:42:02.579Z,18.12
2019-04-04T16:47:05.147Z,17.92
2019-04-04T16:52:07.349Z,17.65
2019-04-04T16:57:08.765Z,17.34
2019-04-04T17:02:09.660Z,17.33
2019-04-04T17:07:10.533Z,17.26
2019-04-04T17:12:15.199Z,17.07
2019-04-04T17:17:14.473Z,16.81
2019-04-04T17:22:15.339Z,16.64
2019-04-04T17:27:16.208Z,16.46
2019-04-04T17:32:17.508Z,16.32
2019-04-04T17:37:18.927Z,16.05
2019-04-04T17:42:28.947Z,15.98
2019-04-04T17:47:22.848Z,15.79
2019-04-04T17:52:24.291Z,15.69
2019-04-04T17:57:25.712Z,15.65
2019-04-04T18:02:26.675Z,15.59
2019-04-04T18:07:27.528Z,15.63
2019-04-04T18:12:39.617Z,15.56
2019-04-04T18:17:31.200Z,15.32
2019-04-04T18:22:32.072Z,15.31
2019-04-04T18:27:32.945Z,15.20
2019-04-04T18:32:33.812Z,15.12
2019-04-04T18:37:34.685Z,15.02
2019-04-04T18:42:36.244Z,14.19
2019-04-04T18:47:37.105Z,13.43
2019-04-04T18:52:37.987Z,12.72
2019-04-04T18:57:38.871Z,11.72
2019-04-04T19:02:40.052Z,11.58
2019-04-04T19:07:41.027Z,11.70
2019-04-04T19:12:41.928Z,11.03
2019-04-04T19:17:42.957Z,11.34
2019-04-04T19:22:43.993Z,11.01
2019-04-04T19:27:44.972Z,10.58
2019-04-04T19:32:45.870Z,10.33
2019-04-04T19:37:58.929Z,10.18
2019-04-04T19:42:49.667Z,10.07
2019-04-04T19:47:50.661Z,9.77
2019-04-04T19:52:51.835Z,9.88
2019-04-04T19:57:52.705Z,9.73
2019-04-04T20:02:53.610Z,9.98
2019-04-04T20:07:54.605Z,9.99
2019-04-04T20:12:55.544Z,9.56
2019-04-04T20:17:56.420Z,9.38
2019-04-04T20:22:57.410Z,9.20
2019-04-04T20:27:58.309Z,9.76
2019-04-04T20:32:59.193Z,9.54
2019-04-04T20:38:00.061Z,9.68
2019-04-04T20:43:00.947Z,9.29
2019-04-04T20:48:01.821Z,8.92
2019-04-04T20:53:02.901Z,8.92
2019-04-04T20:58:03.887Z,8.86
2019-04-04T21:03:04.880Z,8.80
2019-04-04T21:08:05.778Z,8.69
2019-04-04T21:13:06.648Z,8.75
2019-04-04T21:18:07.526Z,8.59
2019-04-04T21:23:08.411Z,8.66
2019-04-04T21:28:09.285Z,8.44
2019-04-04T21:33:10.162Z,8.46
2019-04-04T21:38:11.017Z,8.77
2019-04-04T21:43:11.891Z,8.53
2019-04-04T21:48:12.768Z,8.36
2019-04-04T21:53:13.648Z,8.31
2019-04-04T21:58:14.523Z,8.60
2019-04-04T22:03:15.408Z,8.48
2019-04-04T22:08:16.289Z,8.20
2019-04-04T22:13:17.181Z,8.31
2019-04-04T22:18:18.051Z,8.26
2019-04-04T22:23:19.007Z,8.18
2019-04-04T22:28:20.234Z,8.16
2019-04-04T22:33:21.108Z,8.08
2019-04-04T22:38:21.954Z,8.00
2019-04-04T22:43:22.815Z,7.85
2019-04-04T22:48:23.698Z,7.67
2019-04-04T22:53:25.066Z,7.45
2019-04-04T22:58:28.441Z,7.34
2019-04-04T23:03:28.920Z,7.40
2019-04-04T23:08:29.787Z,7.41
2019-04-04T23:13:30.668Z,7.58
2019-04-04T23:18:32.021Z,7.38
2019-04-04T23:23:32.977Z,7.58
2019-04-04T23:28:33.964Z,7.63
2019-04-04T23:33:34.829Z,7.26
2019-04-04T23:38:35.802Z,7.64
2019-04-04T23:43:36.691Z,7.39
2019-04-04T23:48:37.587Z,7.37
2019-04-04T23:53:38.476Z,7.66
2019-04-04T23:58:39.371Z,7.66
